sensor_id;sensor_type;location;lat;lon;timestamp;P1;durP1;ratioP1;P2;durP2;ratioP2
43337;SDS011;28933;52.492;13.434;2022-12-10T00:01:06;20.27;;;11.70;;
43337;SDS011;28933;52.492;13.434;2022-12-10T00:03:37;19.73;;;11.85;;
43337;SDS011;28933;52.492;13.434;2022-12-10T00:06:03;17.42;;;11.10;;
43337;SDS011;28933;52.492;13.434;2022-12-10T00:08:31;19.17;;;10.25;;
43337;SDS011;28933;52.492;13.434;2022-12-10T00:10:57;21.15;;;11.77;;
43337;SDS011;28933;52.492;13.434;2022-12-10T00:13:24;22.65;;;11.38;;
43337;SDS011;28933;52.492;13.434;2022-12-10T00:15:49;19.60;;;11.15;;
43337;SDS011;28933;52.492;13.434;2022-12-10T00:18:15;22.00;;;12.40;;
43337;SDS011;28933;52.492;13.434;2022-12-10T00:20:41;18.33;;;10.48;;
43337;SDS011;28933;52.492;13.434;2022-12-10T00:23:06;22.40;;;12.02;;
43337;SDS011;28933;52.492;13.434;2022-12-10T00:25:32;16.70;;;10.43;;
43337;SDS011;28933;52.492;13.434;2022-12-10T00:27:57;18.27;;;10.55;;
43337;SDS011;28933;52.492;13.434;2022-12-10T00:30:23;20.20;;;11.27;;
43337;SDS011;28933;52.492;13.434;2022-12-10T00:32:49;19.42;;;11.35;;
43337;SDS011;28933;52.492;13.434;2022-12-10T00:35:15;22.20;;;11.77;;
43337;SDS011;28933;52.492;13.434;2022-12-10T00:37:40;19.92;;;11.20;;
43337;SDS011;28933;52.492;13.434;2022-12-10T00:40:06;17.90;;;10.50;;
43337;SDS011;28933;52.492;13.434;2022-12-10T00:42:32;26.17;;;13.00;;
43337;SDS011;28933;52.492;13.434;2022-12-10T00:44:58;25.05;;;11.73;;
43337;SDS011;28933;52.492;13.434;2022-12-10T00:47:25;22.40;;;11.45;;
43337;SDS011;28933;52.492;13.434;2022-12-10T00:49:50;24.20;;;12.73;;
43337;SDS011;28933;52.492;13.434;2022-12-10T00:52:16;24.35;;;11.90;;
43337;SDS011;28933;52.492;13.434;2022-12-10T00:54:41;20.30;;;12.32;;
43337;SDS011;28933;52.492;13.434;2022-12-10T00:57:07;20.48;;;11.20;;
43337;SDS011;28933;52.492;13.434;2022-12-10T00:59:32;20.13;;;10.35;;
43337;SDS011;28933;52.492;13.434;2022-12-10T01:01:58;22.70;;;11.23;;
43337;SDS011;28933;52.492;13.434;2022-12-10T01:04:24;24.85;;;12.27;;
43337;SDS011;28933;52.492;13.434;2022-12-10T01:06:51;21.15;;;12.05;;
43337;SDS011;28933;52.492;13.434;2022-12-10T01:09:19;19.25;;;10.57;;
43337;SDS011;28933;52.492;13.434;2022-12-10T01:11:47;19.55;;;10.77;;
43337;SDS011;28933;52.492;13.434;2022-12-10T01:14:15;25.77;;;11.73;;
43337;SDS011;28933;52.492;13.434;2022-12-10T01:16:44;20.25;;;10.98;;
43337;SDS011;28933;52.492;13.434;2022-12-10T01:19:10;25.60;;;12.20;;
43337;SDS011;28933;52.492;13.434;2022-12-10T01:21:36;19.92;;;10.88;;
43337;SDS011;28933;52.492;13.434;2022-12-10T01:24:02;20.50;;;11.43;;
43337;SDS011;28933;52.492;13.434;2022-12-10T01:26:30;20.85;;;11.93;;
43337;SDS011;28933;52.492;13.434;2022-12-10T01:28:58;20.27;;;11.00;;
43337;SDS011;28933;52.492;13.434;2022-12-10T01:31:25;20.08;;;11.15;;
43337;SDS011;28933;52.492;13.434;2022-12-10T01:33:58;18.58;;;11.27;;
43337;SDS011;28933;52.492;13.434;2022-12-10T01:36:26;22.85;;;12.60;;
43337;SDS011;28933;52.492;13.434;2022-12-10T01:38:58;20.42;;;10.57;;
43337;SDS011;28933;52.492;13.434;2022-12-10T01:41:26;18.85;;;11.15;;
43337;SDS011;28933;52.492;13.434;2022-12-10T01:44:53;19.25;;;11.25;;
43337;SDS011;28933;52.492;13.434;2022-12-10T01:46:53;19.88;;;11.50;;
43337;SDS011;28933;52.492;13.434;2022-12-10T01:49:24;22.42;;;10.85;;
43337;SDS011;28933;52.492;13.434;2022-12-10T01:51:57;22.13;;;12.75;;
43337;SDS011;28933;52.492;13.434;2022-12-10T01:54:28;20.35;;;11.02;;
43337;SDS011;28933;52.492;13.434;2022-12-10T01:57:03;24.80;;;12.77;;
43337;SDS011;28933;52.492;13.434;2022-12-10T01:59:32;20.33;;;11.57;;
43337;SDS011;28933;52.492;13.434;2022-12-10T02:02:02;20.08;;;11.13;;
43337;SDS011;28933;52.492;13.434;2022-12-10T02:13:11;19.25;;;10.80;;
43337;SDS011;28933;52.492;13.434;2022-12-10T02:15:59;16.75;;;9.52;;
43337;SDS011;28933;52.492;13.434;2022-12-10T02:18:50;21.08;;;11.57;;
43337;SDS011;28933;52.492;13.434;2022-12-10T02:21:43;20.58;;;11.75;;
43337;SDS011;28933;52.492;13.434;2022-12-10T02:24:10;21.75;;;12.00;;
43337;SDS011;28933;52.492;13.434;2022-12-10T02:26:43;23.50;;;12.18;;
43337;SDS011;28933;52.492;13.434;2022-12-10T02:29:26;25.52;;;12.98;;
43337;SDS011;28933;52.492;13.434;2022-12-10T02:32:00;23.52;;;12.75;;
43337;SDS011;28933;52.492;13.434;2022-12-10T02:34:28;21.25;;;11.32;;
43337;SDS011;28933;52.492;13.434;2022-12-10T02:36:57;18.80;;;10.73;;
43337;SDS011;28933;52.492;13.434;2022-12-10T02:39:29;20.95;;;11.05;;
43337;SDS011;28933;52.492;13.434;2022-12-10T02:41:59;25.02;;;11.85;;
43337;SDS011;28933;52.492;13.434;2022-12-10T02:44:28;20.65;;;12.38;;
43337;SDS011;28933;52.492;13.434;2022-12-10T02:46:56;22.02;;;12.20;;
43337;SDS011;28933;52.492;13.434;2022-12-10T02:49:23;25.65;;;12.75;;
43337;SDS011;28933;52.492;13.434;2022-12-10T02:51:50;22.50;;;12.25;;
43337;SDS011;28933;52.492;13.434;2022-12-10T03:14:02;25.88;;;12.93;;
43337;SDS011;28933;52.492;13.434;2022-12-10T03:16:28;24.40;;;12.70;;
43337;SDS011;28933;52.492;13.434;2022-12-10T03:18:57;23.52;;;12.65;;
43337;SDS011;28933;52.492;13.434;2022-12-10T03:21:26;24.45;;;13.98;;
43337;SDS011;28933;52.492;13.434;2022-12-10T03:23:53;26.10;;;13.73;;
43337;SDS011;28933;52.492;13.434;2022-12-10T03:26:19;22.17;;;11.48;;
43337;SDS011;28933;52.492;13.434;2022-12-10T03:28:48;24.63;;;13.70;;
43337;SDS011;28933;52.492;13.434;2022-12-10T03:31:17;25.15;;;12.57;;
43337;SDS011;28933;52.492;13.434;2022-12-10T03:33:44;31.35;;;14.93;;
43337;SDS011;28933;52.492;13.434;2022-12-10T03:36:11;25.98;;;13.90;;
43337;SDS011;28933;52.492;13.434;2022-12-10T03:38:38;25.45;;;13.50;;
43337;SDS011;28933;52.492;13.434;2022-12-10T03:41:04;26.50;;;13.77;;
43337;SDS011;28933;52.492;13.434;2022-12-10T03:43:30;22.75;;;12.45;;
43337;SDS011;28933;52.492;13.434;2022-12-10T03:45:55;26.73;;;13.70;;
43337;SDS011;28933;52.492;13.434;2022-12-10T03:48:21;26.50;;;14.60;;
43337;SDS011;28933;52.492;13.434;2022-12-10T03:50:46;23.75;;;13.77;;
43337;SDS011;28933;52.492;13.434;2022-12-10T03:53:12;25.45;;;14.52;;
43337;SDS011;28933;52.492;13.434;2022-12-10T03:55:37;24.52;;;13.77;;
43337;SDS011;28933;52.492;13.434;2022-12-10T03:58:03;31.08;;;14.75;;
43337;SDS011;28933;52.492;13.434;2022-12-10T04:00:29;25.73;;;14.15;;
43337;SDS011;28933;52.492;13.434;2022-12-10T04:02:54;28.30;;;14.52;;
43337;SDS011;28933;52.492;13.434;2022-12-10T04:05:20;26.55;;;14.10;;
43337;SDS011;28933;52.492;13.434;2022-12-10T04:07:45;27.02;;;13.50;;
43337;SDS011;28933;52.492;13.434;2022-12-10T04:10:11;23.60;;;12.43;;
43337;SDS011;28933;52.492;13.434;2022-12-10T04:12:37;26.90;;;14.20;;
43337;SDS011;28933;52.492;13.434;2022-12-10T04:15:03;27.80;;;14.27;;
43337;SDS011;28933;52.492;13.434;2022-12-10T04:17:48;28.08;;;13.52;;
43337;SDS011;28933;52.492;13.434;2022-12-10T04:20:13;28.42;;;13.70;;
43337;SDS011;28933;52.492;13.434;2022-12-10T04:23:08;27.52;;;13.90;;
43337;SDS011;28933;52.492;13.434;2022-12-10T04:25:53;24.38;;;14.20;;
43337;SDS011;28933;52.492;13.434;2022-12-10T04:28:37;26.80;;;14.75;;
43337;SDS011;28933;52.492;13.434;2022-12-10T04:31:03;26.40;;;14.27;;
43337;SDS011;28933;52.492;13.434;2022-12-10T04:33:28;24.45;;;12.75;;
43337;SDS011;28933;52.492;13.434;2022-12-10T04:35:54;27.80;;;13.93;;
43337;SDS011;28933;52.492;13.434;2022-12-10T04:38:19;24.65;;;14.77;;
43337;SDS011;28933;52.492;13.434;2022-12-10T04:40:45;23.40;;;14.48;;
43337;SDS011;28933;52.492;13.434;2022-12-10T04:43:10;23.90;;;14.52;;
43337;SDS011;28933;52.492;13.434;2022-12-10T04:45:36;22.92;;;13.05;;
43337;SDS011;28933;52.492;13.434;2022-12-10T04:48:02;27.88;;;13.68;;
43337;SDS011;28933;52.492;13.434;2022-12-10T04:50:28;24.23;;;13.32;;
43337;SDS011;28933;52.492;13.434;2022-12-10T04:52:53;27.88;;;15.13;;
43337;SDS011;28933;52.492;13.434;2022-12-10T04:55:19;25.45;;;14.27;;
43337;SDS011;28933;52.492;13.434;2022-12-10T04:57:45;25.60;;;14.07;;
43337;SDS011;28933;52.492;13.434;2022-12-10T05:00:10;21.90;;;13.10;;
43337;SDS011;28933;52.492;13.434;2022-12-10T05:02:37;24.00;;;12.93;;
43337;SDS011;28933;52.492;13.434;2022-12-10T05:05:02;22.98;;;12.40;;
43337;SDS011;28933;52.492;13.434;2022-12-10T05:07:28;22.58;;;13.15;;
43337;SDS011;28933;52.492;13.434;2022-12-10T05:09:54;25.55;;;14.23;;
43337;SDS011;28933;52.492;13.434;2022-12-10T05:12:21;24.75;;;13.50;;
43337;SDS011;28933;52.492;13.434;2022-12-10T05:14:46;23.15;;;14.15;;
43337;SDS011;28933;52.492;13.434;2022-12-10T05:17:12;25.67;;;14.32;;
43337;SDS011;28933;52.492;13.434;2022-12-10T05:19:37;22.35;;;13.73;;
43337;SDS011;28933;52.492;13.434;2022-12-10T05:22:03;21.13;;;12.30;;
43337;SDS011;28933;52.492;13.434;2022-12-10T05:24:47;24.88;;;13.90;;
43337;SDS011;28933;52.492;13.434;2022-12-10T05:27:13;25.60;;;14.98;;
43337;SDS011;28933;52.492;13.434;2022-12-10T05:29:39;21.63;;;13.60;;
43337;SDS011;28933;52.492;13.434;2022-12-10T05:32:05;25.15;;;13.65;;
43337;SDS011;28933;52.492;13.434;2022-12-10T05:34:30;22.60;;;13.20;;
43337;SDS011;28933;52.492;13.434;2022-12-10T05:36:56;25.08;;;12.70;;
43337;SDS011;28933;52.492;13.434;2022-12-10T05:39:22;20.38;;;12.40;;
43337;SDS011;28933;52.492;13.434;2022-12-10T05:41:49;23.33;;;13.82;;
43337;SDS011;28933;52.492;13.434;2022-12-10T05:44:14;23.40;;;12.90;;
43337;SDS011;28933;52.492;13.434;2022-12-10T05:46:40;21.23;;;12.50;;
43337;SDS011;28933;52.492;13.434;2022-12-10T05:49:06;24.95;;;14.45;;
43337;SDS011;28933;52.492;13.434;2022-12-10T05:51:33;21.98;;;13.27;;
43337;SDS011;28933;52.492;13.434;2022-12-10T05:54:00;23.27;;;13.05;;
43337;SDS011;28933;52.492;13.434;2022-12-10T05:56:28;21.65;;;12.80;;
43337;SDS011;28933;52.492;13.434;2022-12-10T05:58:56;21.10;;;12.55;;
43337;SDS011;28933;52.492;13.434;2022-12-10T06:01:25;24.02;;;12.65;;
43337;SDS011;28933;52.492;13.434;2022-12-10T06:03:53;22.63;;;13.43;;
43337;SDS011;28933;52.492;13.434;2022-12-10T06:06:22;21.58;;;12.50;;
43337;SDS011;28933;52.492;13.434;2022-12-10T06:08:50;18.27;;;11.02;;
43337;SDS011;28933;52.492;13.434;2022-12-10T06:11:16;21.50;;;11.38;;
43337;SDS011;28933;52.492;13.434;2022-12-10T06:13:42;18.70;;;11.48;;
43337;SDS011;28933;52.492;13.434;2022-12-10T06:16:09;19.70;;;11.75;;
43337;SDS011;28933;52.492;13.434;2022-12-10T06:18:36;18.55;;;11.48;;
43337;SDS011;28933;52.492;13.434;2022-12-10T06:21:06;18.23;;;10.60;;
43337;SDS011;28933;52.492;13.434;2022-12-10T06:23:34;18.95;;;12.20;;
43337;SDS011;28933;52.492;13.434;2022-12-10T06:26:07;21.05;;;12.32;;
43337;SDS011;28933;52.492;13.434;2022-12-10T06:28:36;15.80;;;10.55;;
43337;SDS011;28933;52.492;13.434;2022-12-10T06:31:02;16.48;;;10.07;;
43337;SDS011;28933;52.492;13.434;2022-12-10T06:33:28;21.42;;;11.57;;
43337;SDS011;28933;52.492;13.434;2022-12-10T06:35:53;18.83;;;10.55;;
43337;SDS011;28933;52.492;13.434;2022-12-10T06:38:19;18.35;;;11.10;;
43337;SDS011;28933;52.492;13.434;2022-12-10T06:40:45;21.85;;;11.60;;
43337;SDS011;28933;52.492;13.434;2022-12-10T06:43:10;19.85;;;11.70;;
43337;SDS011;28933;52.492;13.434;2022-12-10T06:45:39;18.60;;;10.85;;
43337;SDS011;28933;52.492;13.434;2022-12-10T06:48:05;19.30;;;11.65;;
43337;SDS011;28933;52.492;13.434;2022-12-10T06:50:31;17.73;;;10.23;;
43337;SDS011;28933;52.492;13.434;2022-12-10T06:52:56;17.95;;;11.43;;
43337;SDS011;28933;52.492;13.434;2022-12-10T06:55:22;18.05;;;10.55;;
43337;SDS011;28933;52.492;13.434;2022-12-10T06:57:51;17.23;;;10.63;;
43337;SDS011;28933;52.492;13.434;2022-12-10T07:00:17;17.23;;;10.77;;
43337;SDS011;28933;52.492;13.434;2022-12-10T07:02:44;17.95;;;11.15;;
43337;SDS011;28933;52.492;13.434;2022-12-10T07:05:09;19.27;;;11.30;;
43337;SDS011;28933;52.492;13.434;2022-12-10T07:07:35;15.27;;;10.55;;
43337;SDS011;28933;52.492;13.434;2022-12-10T07:10:01;17.63;;;10.63;;
43337;SDS011;28933;52.492;13.434;2022-12-10T07:12:28;19.08;;;11.95;;
43337;SDS011;28933;52.492;13.434;2022-12-10T07:14:54;16.95;;;10.77;;
43337;SDS011;28933;52.492;13.434;2022-12-10T07:17:19;13.93;;;9.85;;
43337;SDS011;28933;52.492;13.434;2022-12-10T07:19:45;19.13;;;10.85;;
43337;SDS011;28933;52.492;13.434;2022-12-10T07:22:11;18.88;;;10.05;;
43337;SDS011;28933;52.492;13.434;2022-12-10T07:24:37;18.05;;;9.75;;
43337;SDS011;28933;52.492;13.434;2022-12-10T07:27:06;16.00;;;10.13;;
43337;SDS011;28933;52.492;13.434;2022-12-10T07:29:32;14.90;;;9.55;;
43337;SDS011;28933;52.492;13.434;2022-12-10T07:31:59;18.27;;;10.30;;
43337;SDS011;28933;52.492;13.434;2022-12-10T07:34:25;17.88;;;9.65;;
43337;SDS011;28933;52.492;13.434;2022-12-10T07:36:50;14.93;;;9.98;;
43337;SDS011;28933;52.492;13.434;2022-12-10T07:39:16;16.60;;;9.27;;
43337;SDS011;28933;52.492;13.434;2022-12-10T07:41:43;17.80;;;10.45;;
43337;SDS011;28933;52.492;13.434;2022-12-10T07:44:12;18.27;;;10.20;;
43337;SDS011;28933;52.492;13.434;2022-12-10T07:46:38;13.68;;;8.98;;
43337;SDS011;28933;52.492;13.434;2022-12-10T07:49:04;14.63;;;9.82;;
43337;SDS011;28933;52.492;13.434;2022-12-10T07:51:30;14.43;;;9.60;;
43337;SDS011;28933;52.492;13.434;2022-12-10T07:53:56;16.30;;;10.38;;
43337;SDS011;28933;52.492;13.434;2022-12-10T07:56:22;15.07;;;9.68;;
43337;SDS011;28933;52.492;13.434;2022-12-10T07:58:49;18.23;;;11.13;;
43337;SDS011;28933;52.492;13.434;2022-12-10T08:01:17;14.23;;;9.68;;
43337;SDS011;28933;52.492;13.434;2022-12-10T08:03:48;14.02;;;8.93;;
43337;SDS011;28933;52.492;13.434;2022-12-10T08:06:15;15.40;;;9.70;;
43337;SDS011;28933;52.492;13.434;2022-12-10T08:08:43;20.00;;;11.93;;
43337;SDS011;28933;52.492;13.434;2022-12-10T08:11:09;19.35;;;10.80;;
43337;SDS011;28933;52.492;13.434;2022-12-10T08:13:36;16.25;;;9.77;;
43337;SDS011;28933;52.492;13.434;2022-12-10T08:16:03;16.77;;;10.40;;
43337;SDS011;28933;52.492;13.434;2022-12-10T08:18:30;19.80;;;11.20;;
43337;SDS011;28933;52.492;13.434;2022-12-10T08:20:56;16.30;;;9.82;;
43337;SDS011;28933;52.492;13.434;2022-12-10T08:23:23;15.20;;;9.32;;
43337;SDS011;28933;52.492;13.434;2022-12-10T08:25:49;16.13;;;9.52;;
43337;SDS011;28933;52.492;13.434;2022-12-10T08:28:14;15.57;;;10.32;;
43337;SDS011;28933;52.492;13.434;2022-12-10T08:30:44;18.00;;;9.57;;
43337;SDS011;28933;52.492;13.434;2022-12-10T08:33:11;15.00;;;9.20;;
43337;SDS011;28933;52.492;13.434;2022-12-10T08:35:37;15.52;;;10.32;;
43337;SDS011;28933;52.492;13.434;2022-12-10T08:38:03;13.40;;;9.43;;
43337;SDS011;28933;52.492;13.434;2022-12-10T08:40:29;14.95;;;9.60;;
43337;SDS011;28933;52.492;13.434;2022-12-10T08:42:54;15.50;;;10.13;;
43337;SDS011;28933;52.492;13.434;2022-12-10T08:45:20;16.35;;;9.82;;
43337;SDS011;28933;52.492;13.434;2022-12-10T08:47:45;15.32;;;10.25;;
43337;SDS011;28933;52.492;13.434;2022-12-10T08:50:11;18.23;;;10.80;;
43337;SDS011;28933;52.492;13.434;2022-12-10T08:52:37;14.05;;;10.32;;
43337;SDS011;28933;52.492;13.434;2022-12-10T08:55:03;18.60;;;11.23;;
43337;SDS011;28933;52.492;13.434;2022-12-10T08:57:29;14.82;;;9.63;;
43337;SDS011;28933;52.492;13.434;2022-12-10T08:59:54;14.25;;;9.88;;
43337;SDS011;28933;52.492;13.434;2022-12-10T09:02:20;15.50;;;9.82;;
43337;SDS011;28933;52.492;13.434;2022-12-10T09:04:46;16.70;;;10.85;;
43337;SDS011;28933;52.492;13.434;2022-12-10T09:07:12;15.82;;;10.68;;
43337;SDS011;28933;52.492;13.434;2022-12-10T09:09:37;17.67;;;11.32;;
43337;SDS011;28933;52.492;13.434;2022-12-10T09:12:03;16.80;;;11.07;;
43337;SDS011;28933;52.492;13.434;2022-12-10T09:14:29;18.88;;;11.43;;
43337;SDS011;28933;52.492;13.434;2022-12-10T09:16:54;19.05;;;12.57;;
43337;SDS011;28933;52.492;13.434;2022-12-10T09:19:20;16.50;;;11.63;;
43337;SDS011;28933;52.492;13.434;2022-12-10T09:21:46;16.55;;;11.70;;
43337;SDS011;28933;52.492;13.434;2022-12-10T09:24:12;18.30;;;12.20;;
43337;SDS011;28933;52.492;13.434;2022-12-10T09:26:38;15.82;;;10.90;;
43337;SDS011;28933;52.492;13.434;2022-12-10T09:29:04;18.73;;;11.57;;
43337;SDS011;28933;52.492;13.434;2022-12-10T09:31:30;15.95;;;11.02;;
43337;SDS011;28933;52.492;13.434;2022-12-10T09:33:55;15.00;;;10.60;;
43337;SDS011;28933;52.492;13.434;2022-12-10T09:36:21;17.25;;;11.55;;
43337;SDS011;28933;52.492;13.434;2022-12-10T09:38:47;16.85;;;11.30;;
43337;SDS011;28933;52.492;13.434;2022-12-10T09:46:58;16.35;;;11.20;;
43337;SDS011;28933;52.492;13.434;2022-12-10T09:52:12;17.75;;;11.02;;
43337;SDS011;28933;52.492;13.434;2022-12-10T09:54:43;17.25;;;12.13;;
43337;SDS011;28933;52.492;13.434;2022-12-10T09:57:19;21.17;;;11.82;;
43337;SDS011;28933;52.492;13.434;2022-12-10T09:59:56;18.10;;;11.85;;
43337;SDS011;28933;52.492;13.434;2022-12-10T10:02:29;16.73;;;10.95;;
43337;SDS011;28933;52.492;13.434;2022-12-10T10:07:30;18.30;;;12.60;;
43337;SDS011;28933;52.492;13.434;2022-12-10T10:09:59;17.52;;;11.73;;
43337;SDS011;28933;52.492;13.434;2022-12-10T10:12:30;16.77;;;11.00;;
43337;SDS011;28933;52.492;13.434;2022-12-10T10:14:58;18.60;;;11.70;;
43337;SDS011;28933;52.492;13.434;2022-12-10T10:17:35;16.80;;;11.05;;
43337;SDS011;28933;52.492;13.434;2022-12-10T10:20:02;23.42;;;13.50;;
43337;SDS011;28933;52.492;13.434;2022-12-10T10:22:29;19.70;;;13.02;;
43337;SDS011;28933;52.492;13.434;2022-12-10T10:24:55;19.27;;;13.25;;
43337;SDS011;28933;52.492;13.434;2022-12-10T10:27:23;19.80;;;12.20;;
43337;SDS011;28933;52.492;13.434;2022-12-10T10:29:54;19.52;;;12.63;;
43337;SDS011;28933;52.492;13.434;2022-12-10T10:32:23;22.98;;;13.50;;
43337;SDS011;28933;52.492;13.434;2022-12-10T10:35:00;21.48;;;13.68;;
43337;SDS011;28933;52.492;13.434;2022-12-10T10:40:04;20.38;;;14.15;;
43337;SDS011;28933;52.492;13.434;2022-12-10T10:42:37;19.00;;;13.45;;
43337;SDS011;28933;52.492;13.434;2022-12-10T10:45:09;19.83;;;13.68;;
43337;SDS011;28933;52.492;13.434;2022-12-10T10:48:22;21.95;;;14.00;;
43337;SDS011;28933;52.492;13.434;2022-12-10T10:50:51;19.15;;;12.50;;
43337;SDS011;28933;52.492;13.434;2022-12-10T10:55:48;17.65;;;11.40;;
43337;SDS011;28933;52.492;13.434;2022-12-10T10:58:18;17.75;;;11.48;;
43337;SDS011;28933;52.492;13.434;2022-12-10T11:00:52;16.83;;;12.55;;
43337;SDS011;28933;52.492;13.434;2022-12-10T11:03:22;16.80;;;11.40;;
43337;SDS011;28933;52.492;13.434;2022-12-10T11:05:48;17.17;;;11.70;;
43337;SDS011;28933;52.492;13.434;2022-12-10T11:08:17;22.25;;;13.93;;
43337;SDS011;28933;52.492;13.434;2022-12-10T11:10:49;19.20;;;13.00;;
43337;SDS011;28933;52.492;13.434;2022-12-10T11:13:23;17.90;;;11.60;;
43337;SDS011;28933;52.492;13.434;2022-12-10T11:16:02;22.35;;;13.10;;
43337;SDS011;28933;52.492;13.434;2022-12-10T11:18:38;19.75;;;11.07;;
43337;SDS011;28933;52.492;13.434;2022-12-10T11:23:39;20.20;;;11.77;;
43337;SDS011;28933;52.492;13.434;2022-12-10T11:37:18;20.63;;;13.30;;
43337;SDS011;28933;52.492;13.434;2022-12-10T11:40:20;19.55;;;12.68;;
43337;SDS011;28933;52.492;13.434;2022-12-10T11:43:14;20.33;;;12.10;;
43337;SDS011;28933;52.492;13.434;2022-12-10T11:54:36;20.40;;;13.38;;
43337;SDS011;28933;52.492;13.434;2022-12-10T11:59:59;20.55;;;13.13;;
43337;SDS011;28933;52.492;13.434;2022-12-10T12:02:54;17.77;;;12.18;;
43337;SDS011;28933;52.492;13.434;2022-12-10T12:08:34;19.88;;;11.98;;
43337;SDS011;28933;52.492;13.434;2022-12-10T12:16:34;20.17;;;12.77;;
43337;SDS011;28933;52.492;13.434;2022-12-10T12:19:10;19.25;;;12.10;;
43337;SDS011;28933;52.492;13.434;2022-12-10T12:21:39;18.90;;;12.40;;
43337;SDS011;28933;52.492;13.434;2022-12-10T12:24:16;18.70;;;12.10;;
43337;SDS011;28933;52.492;13.434;2022-12-10T12:27:31;23.83;;;14.13;;
43337;SDS011;28933;52.492;13.434;2022-12-10T12:30:03;28.25;;;15.88;;
43337;SDS011;28933;52.492;13.434;2022-12-10T12:32:31;22.35;;;14.95;;
43337;SDS011;28933;52.492;13.434;2022-12-10T12:38:06;20.60;;;12.73;;
43337;SDS011;28933;52.492;13.434;2022-12-10T12:40:49;18.10;;;11.93;;
43337;SDS011;28933;52.492;13.434;2022-12-10T12:45:59;17.88;;;11.30;;
43337;SDS011;28933;52.492;13.434;2022-12-10T12:48:30;17.95;;;12.52;;
43337;SDS011;28933;52.492;13.434;2022-12-10T12:53:59;20.35;;;12.60;;
43337;SDS011;28933;52.492;13.434;2022-12-10T13:02:19;15.95;;;11.43;;
43337;SDS011;28933;52.492;13.434;2022-12-10T13:05:08;16.90;;;11.65;;
43337;SDS011;28933;52.492;13.434;2022-12-10T13:08:31;16.65;;;10.70;;
43337;SDS011;28933;52.492;13.434;2022-12-10T13:19:31;19.90;;;12.05;;
43337;SDS011;28933;52.492;13.434;2022-12-10T13:32:52;18.40;;;11.40;;
43337;SDS011;28933;52.492;13.434;2022-12-10T13:46:21;20.08;;;12.48;;
43337;SDS011;28933;52.492;13.434;2022-12-10T13:48:51;17.60;;;11.20;;
43337;SDS011;28933;52.492;13.434;2022-12-10T13:54:19;18.08;;;11.40;;
43337;SDS011;28933;52.492;13.434;2022-12-10T14:00:31;18.85;;;11.48;;
43337;SDS011;28933;52.492;13.434;2022-12-10T14:05:42;20.67;;;13.00;;
43337;SDS011;28933;52.492;13.434;2022-12-10T14:08:13;20.98;;;13.40;;
43337;SDS011;28933;52.492;13.434;2022-12-10T14:10:43;23.33;;;15.30;;
43337;SDS011;28933;52.492;13.434;2022-12-10T14:13:11;21.00;;;13.02;;
43337;SDS011;28933;52.492;13.434;2022-12-10T14:15:40;22.67;;;13.18;;
43337;SDS011;28933;52.492;13.434;2022-12-10T14:18:12;25.08;;;13.52;;
43337;SDS011;28933;52.492;13.434;2022-12-10T14:20:47;20.75;;;13.18;;
43337;SDS011;28933;52.492;13.434;2022-12-10T14:23:26;21.30;;;11.57;;
43337;SDS011;28933;52.492;13.434;2022-12-10T14:28:47;19.67;;;13.38;;
43337;SDS011;28933;52.492;13.434;2022-12-10T14:31:35;18.95;;;13.10;;
43337;SDS011;28933;52.492;13.434;2022-12-10T14:34:06;22.70;;;12.80;;
43337;SDS011;28933;52.492;13.434;2022-12-10T14:36:34;23.55;;;13.55;;
43337;SDS011;28933;52.492;13.434;2022-12-10T14:39:10;23.70;;;14.07;;
43337;SDS011;28933;52.492;13.434;2022-12-10T14:41:49;22.73;;;13.95;;
43337;SDS011;28933;52.492;13.434;2022-12-10T14:44:17;22.75;;;13.95;;
43337;SDS011;28933;52.492;13.434;2022-12-10T14:46:46;27.75;;;15.68;;
43337;SDS011;28933;52.492;13.434;2022-12-10T14:49:26;24.83;;;12.60;;
43337;SDS011;28933;52.492;13.434;2022-12-10T14:51:52;23.90;;;14.05;;
43337;SDS011;28933;52.492;13.434;2022-12-10T14:56:54;24.23;;;13.70;;
43337;SDS011;28933;52.492;13.434;2022-12-10T14:59:26;22.30;;;14.18;;
43337;SDS011;28933;52.492;13.434;2022-12-10T15:01:58;23.17;;;14.07;;
43337;SDS011;28933;52.492;13.434;2022-12-10T15:04:38;25.23;;;13.98;;
43337;SDS011;28933;52.492;13.434;2022-12-10T15:07:07;24.33;;;14.02;;
43337;SDS011;28933;52.492;13.434;2022-12-10T15:09:43;25.58;;;14.05;;
43337;SDS011;28933;52.492;13.434;2022-12-10T15:12:15;26.33;;;14.77;;
43337;SDS011;28933;52.492;13.434;2022-12-10T15:14:55;22.83;;;14.60;;
43337;SDS011;28933;52.492;13.434;2022-12-10T15:17:36;26.02;;;14.55;;
43337;SDS011;28933;52.492;13.434;2022-12-10T15:20:26;25.98;;;13.82;;
43337;SDS011;28933;52.492;13.434;2022-12-10T15:23:34;28.52;;;14.13;;
43337;SDS011;28933;52.492;13.434;2022-12-10T15:28:23;24.67;;;13.15;;
43337;SDS011;28933;52.492;13.434;2022-12-10T15:30:51;27.63;;;14.85;;
43337;SDS011;28933;52.492;13.434;2022-12-10T15:33:21;28.10;;;14.23;;
43337;SDS011;28933;52.492;13.434;2022-12-10T15:36:29;30.17;;;14.57;;
43337;SDS011;28933;52.492;13.434;2022-12-10T15:39:03;31.42;;;15.20;;
43337;SDS011;28933;52.492;13.434;2022-12-10T15:41:43;25.65;;;14.38;;
43337;SDS011;28933;52.492;13.434;2022-12-10T15:49:30;31.48;;;14.95;;
43337;SDS011;28933;52.492;13.434;2022-12-10T15:51:56;33.33;;;16.15;;
43337;SDS011;28933;52.492;13.434;2022-12-10T15:54:33;30.02;;;16.42;;
43337;SDS011;28933;52.492;13.434;2022-12-10T15:57:13;29.50;;;15.57;;
43337;SDS011;28933;52.492;13.434;2022-12-10T15:59:46;32.50;;;15.77;;
43337;SDS011;28933;52.492;13.434;2022-12-10T16:05:14;27.20;;;14.55;;
43337;SDS011;28933;52.492;13.434;2022-12-10T16:07:40;27.58;;;14.68;;
43337;SDS011;28933;52.492;13.434;2022-12-10T16:10:07;30.42;;;15.95;;
43337;SDS011;28933;52.492;13.434;2022-12-10T16:12:35;35.55;;;18.00;;
43337;SDS011;28933;52.492;13.434;2022-12-10T16:15:02;35.13;;;15.00;;
43337;SDS011;28933;52.492;13.434;2022-12-10T16:17:30;37.70;;;15.75;;
43337;SDS011;28933;52.492;13.434;2022-12-10T16:20:00;32.25;;;16.83;;
43337;SDS011;28933;52.492;13.434;2022-12-10T16:22:37;32.75;;;14.60;;
43337;SDS011;28933;52.492;13.434;2022-12-10T16:25:03;33.33;;;15.35;;
43337;SDS011;28933;52.492;13.434;2022-12-10T16:27:29;31.83;;;15.77;;
43337;SDS011;28933;52.492;13.434;2022-12-10T16:29:57;31.70;;;15.88;;
43337;SDS011;28933;52.492;13.434;2022-12-10T16:32:23;29.45;;;13.98;;
43337;SDS011;28933;52.492;13.434;2022-12-10T16:34:49;35.28;;;16.13;;
43337;SDS011;28933;52.492;13.434;2022-12-10T16:37:16;39.65;;;17.05;;
43337;SDS011;28933;52.492;13.434;2022-12-10T16:39:42;37.08;;;16.42;;
43337;SDS011;28933;52.492;13.434;2022-12-10T16:42:10;34.47;;;15.00;;
43337;SDS011;28933;52.492;13.434;2022-12-10T16:44:36;36.30;;;15.60;;
43337;SDS011;28933;52.492;13.434;2022-12-10T16:47:11;35.10;;;17.42;;
43337;SDS011;28933;52.492;13.434;2022-12-10T16:49:38;41.47;;;17.23;;
43337;SDS011;28933;52.492;13.434;2022-12-10T16:52:04;29.55;;;15.35;;
43337;SDS011;28933;52.492;13.434;2022-12-10T16:54:31;33.63;;;16.73;;